LELN/LEN METAR and TAF weather

Enter ICAO airport designator
Station Type Date Time Source
LELN METAR 2023/01/29 19:00 UTC NOAA

LELN 291900Z 18005KT CAVOK 01/M02 Q1025


Station Type Date Time Source
LELN Decoded METAR 2023/01/29 19:00 UTC NOAA

Leon / Virgen Del Camino, Spain (LELN) 42-35N 005-39W 914M
Jan 29, 2023 - 02:00 PM EST / 2023.01.29 1900 UTC
Wind: from the S (180 degrees) at 6 MPH (5 KT):0
Visibility: greater than 7 mile(s):0
Temperature: 33 F (1 C)
Windchill: 26 F (-3 C):1
Dew Point: 28 F (-2 C)
Relative Humidity: 80%
Pressure (altimeter): 30.27 in. Hg (1025 hPa)
ob: LELN 291900Z 18005KT CAVOK 01/M02 Q1025
cycle: 19

Station Type Date Time Source
LELN TAF 2023/01/29 15:27 UTC NOAA

TAF LELN 291400Z 2915/3015 VRB05KT 9999 SCT025 TX07/3015Z TNM08/3007Z PROB40
TEMPO 2915/2917 05010KT PROB30
TEMPO 2922/3008 BKN006

Example: see airport list